createdAt,value
2022-11-21T00:01:41.788Z,15.40
2022-11-21T00:04:16.184Z,15.40
2022-11-21T00:06:50.635Z,15.50
2022-11-21T00:09:29.217Z,15.50
2022-11-21T00:12:04.001Z,15.50
2022-11-21T00:14:40.287Z,15.50
2022-11-21T00:17:15.451Z,15.50
2022-11-21T00:19:49.395Z,15.50
2022-11-21T00:22:24.248Z,15.60
2022-11-21T00:25:10.200Z,15.60
2022-11-21T00:27:44.738Z,15.60
2022-11-21T00:30:19.973Z,15.60
2022-11-21T00:32:54.279Z,15.60
2022-11-21T00:35:28.644Z,15.70
2022-11-21T00:38:02.962Z,15.60
2022-11-21T00:40:39.760Z,15.70
2022-11-21T00:43:13.772Z,15.80
2022-11-21T00:45:48.116Z,15.80
2022-11-21T00:48:25.946Z,15.80
2022-11-21T00:51:03.120Z,15.90
2022-11-21T00:53:40.120Z,16.00
2022-11-21T00:56:16.658Z,16.10
2022-11-21T00:58:57.288Z,16.10
2022-11-21T01:01:44.361Z,16.10
2022-11-21T01:04:20.199Z,16.10
2022-11-21T01:06:54.925Z,16.20
2022-11-21T01:09:30.199Z,16.30
2022-11-21T01:12:07.520Z,16.30
2022-11-21T01:14:43.033Z,16.30
2022-11-21T01:17:17.494Z,16.40
2022-11-21T01:19:51.748Z,16.40
2022-11-21T01:22:29.706Z,16.40
2022-11-21T01:25:04.130Z,16.50
2022-11-21T01:27:40.245Z,16.60
2022-11-21T01:30:15.984Z,16.50
2022-11-21T01:32:54.445Z,16.70
2022-11-21T01:35:29.211Z,16.80
2022-11-21T01:38:03.952Z,16.80
2022-11-21T01:40:44.751Z,16.90
2022-11-21T01:43:25.439Z,17.00
2022-11-21T01:46:02.924Z,17.00
2022-11-21T01:48:44.322Z,17.00
2022-11-21T01:51:25.742Z,17.20
2022-11-21T01:54:05.403Z,17.30
2022-11-21T01:56:48.457Z,17.30
2022-11-21T01:59:37.829Z,17.30
2022-11-21T02:02:14.050Z,17.30
2022-11-21T02:04:55.762Z,17.30
2022-11-21T02:07:35.458Z,17.50
2022-11-21T02:10:10.989Z,17.60
2022-11-21T02:12:50.907Z,17.80
2022-11-21T02:15:29.331Z,18.00
2022-11-21T02:18:04.270Z,18.10
2022-11-21T02:20:46.198Z,18.10
2022-11-21T02:23:31.749Z,18.20
2022-11-21T02:26:08.606Z,18.30
2022-11-21T02:28:43.477Z,18.30
2022-11-21T02:31:21.767Z,18.20
2022-11-21T02:33:56.706Z,18.20
2022-11-21T02:36:48.166Z,18.40
2022-11-21T02:39:38.114Z,18.50
2022-11-21T02:42:23.112Z,18.60
2022-11-21T02:45:13.167Z,18.80
2022-11-21T02:48:03.439Z,18.70
2022-11-21T02:50:39.883Z,18.80
2022-11-21T02:53:26.793Z,18.90
2022-11-21T02:56:01.261Z,19.00
2022-11-21T02:58:37.914Z,19.10
2022-11-21T03:01:12.770Z,18.90
2022-11-21T03:03:46.689Z,19.00
2022-11-21T03:06:29.076Z,19.20
2022-11-21T03:09:03.929Z,19.30
2022-11-21T03:11:38.561Z,19.40
2022-11-21T03:14:15.524Z,19.60
2022-11-21T03:16:59.564Z,19.80
2022-11-21T03:19:34.274Z,19.60
2022-11-21T03:22:09.958Z,19.70
2022-11-21T03:24:44.611Z,19.80
2022-11-21T03:27:29.993Z,19.80
2022-11-21T03:30:06.763Z,19.80
2022-11-21T03:32:41.919Z,19.80
2022-11-21T03:35:16.802Z,19.90
2022-11-21T03:37:52.099Z,20.30
2022-11-21T03:40:26.434Z,20.20
2022-11-21T03:43:00.916Z,20.30
2022-11-21T03:45:37.085Z,20.40
2022-11-21T03:48:12.641Z,20.70
2022-11-21T03:50:49.189Z,20.80
2022-11-21T03:53:23.487Z,21.00
2022-11-21T03:55:57.629Z,21.00
2022-11-21T03:58:32.037Z,21.00
2022-11-21T04:01:17.734Z,21.10
2022-11-21T04:03:53.820Z,21.10
2022-11-21T04:06:28.566Z,21.10
2022-11-21T04:09:02.781Z,21.30
2022-11-21T04:11:42.443Z,21.30
2022-11-21T04:14:17.031Z,21.30
2022-11-21T04:16:53.924Z,21.50
2022-11-21T04:19:28.217Z,21.60
2022-11-21T04:22:02.732Z,21.50
2022-11-21T04:24:37.758Z,21.80
2022-11-21T04:27:12.224Z,21.70
2022-11-21T04:29:46.172Z,21.70
2022-11-21T04:32:23.105Z,21.70
2022-11-21T04:34:57.585Z,21.90
2022-11-21T04:37:32.011Z,22.00
2022-11-21T04:40:06.198Z,22.10
2022-11-21T04:42:56.808Z,22.10
2022-11-21T04:45:34.037Z,22.40
2022-11-21T04:48:11.175Z,22.10
2022-11-21T04:50:47.836Z,22.00
2022-11-21T04:53:22.267Z,21.50
2022-11-21T04:55:56.440Z,21.20
2022-11-21T04:58:30.618Z,21.20
2022-11-21T05:01:12.053Z,20.90
2022-11-21T05:03:49.509Z,21.10
2022-11-21T05:06:24.186Z,21.10
2022-11-21T05:08:58.441Z,20.90
2022-11-21T05:12:07.080Z,20.90
2022-11-21T05:14:41.461Z,21.00
2022-11-21T05:17:15.716Z,21.00
2022-11-21T05:19:52.532Z,20.90
2022-11-21T05:22:27.589Z,20.80
2022-11-21T05:25:05.057Z,20.90
2022-11-21T05:27:39.630Z,20.90
2022-11-21T05:30:14.750Z,20.90
2022-11-21T05:32:57.719Z,20.70
2022-11-21T05:35:43.105Z,20.60
2022-11-21T05:38:18.186Z,20.40
2022-11-21T05:40:53.681Z,20.60
2022-11-21T05:43:43.829Z,20.80
2022-11-21T05:46:20.194Z,20.60
2022-11-21T05:48:55.600Z,20.60
2022-11-21T05:51:32.018Z,20.40
2022-11-21T05:54:06.930Z,20.50
2022-11-21T05:56:41.247Z,20.30
2022-11-21T05:59:17.402Z,20.20
2022-11-21T06:02:07.371Z,20.00
2022-11-21T06:04:42.395Z,20.10
2022-11-21T06:07:18.690Z,20.20
2022-11-21T06:09:56.705Z,20.30
2022-11-21T06:12:31.017Z,20.50
2022-11-21T06:15:05.894Z,20.50
2022-11-21T06:17:40.434Z,20.40
2022-11-21T06:20:15.434Z,20.40
2022-11-21T06:22:51.382Z,20.50
2022-11-21T06:25:26.612Z,20.40
2022-11-21T06:28:03.085Z,20.30
2022-11-21T06:39:07.577Z,20.50
2022-11-21T06:41:43.805Z,20.50
2022-11-21T06:44:18.808Z,20.60
2022-11-21T06:46:54.008Z,20.60
2022-11-21T06:49:28.003Z,20.50
2022-11-21T06:52:11.753Z,20.60
2022-11-21T06:54:47.114Z,20.60
2022-11-21T06:57:24.297Z,20.50
2022-11-21T06:59:59.037Z,20.60
2022-11-21T07:02:33.322Z,20.50
2022-11-21T07:05:09.276Z,20.40
2022-11-21T07:07:44.302Z,20.60
2022-11-21T07:10:19.454Z,20.60
2022-11-21T07:13:11.848Z,20.40
2022-11-21T07:15:47.444Z,20.50
2022-11-21T07:18:22.226Z,20.30
2022-11-21T07:20:57.763Z,20.50
2022-11-21T07:23:32.629Z,20.40
2022-11-21T07:26:09.313Z,20.50
2022-11-21T07:28:45.585Z,20.40
2022-11-21T07:31:23.608Z,20.40
2022-11-21T07:33:57.691Z,20.20
2022-11-21T07:36:38.607Z,20.30
2022-11-21T07:39:13.269Z,20.40
2022-11-21T07:41:47.981Z,20.50
2022-11-21T07:44:25.606Z,20.50
2022-11-21T07:47:00.675Z,20.40
2022-11-21T07:49:38.393Z,20.30
2022-11-21T07:52:14.630Z,20.30
2022-11-21T07:54:49.037Z,20.30
2022-11-21T07:57:23.835Z,20.30
2022-11-21T08:00:00.200Z,20.40
2022-11-21T08:02:34.752Z,20.30
2022-11-21T08:05:10.302Z,20.30
2022-11-21T08:07:44.288Z,20.30
2022-11-21T08:10:42.478Z,20.20
2022-11-21T08:13:17.074Z,20.30
2022-11-21T08:15:53.194Z,20.20
2022-11-21T08:18:28.074Z,20.10
2022-11-21T08:21:04.511Z,20.10
2022-11-21T08:23:38.501Z,20.10
2022-11-21T08:26:15.175Z,20.20
2022-11-21T08:28:49.347Z,20.10
2022-11-21T08:31:25.977Z,20.00
2022-11-21T08:34:02.091Z,20.00
2022-11-21T08:36:36.211Z,19.90
2022-11-21T08:39:10.686Z,20.00
2022-11-21T08:42:00.603Z,19.90
2022-11-21T08:44:35.224Z,19.80
2022-11-21T08:47:11.290Z,19.80
2022-11-21T08:49:48.075Z,19.70
2022-11-21T08:52:22.987Z,19.70
2022-11-21T08:54:56.988Z,19.80
2022-11-21T08:57:33.300Z,19.80
2022-11-21T09:00:07.883Z,19.70
2022-11-21T09:02:49.417Z,19.60
2022-11-21T09:05:24.746Z,19.60
2022-11-21T09:08:03.111Z,19.60
2022-11-21T09:10:41.714Z,19.50
2022-11-21T09:13:17.621Z,19.50
2022-11-21T09:16:07.662Z,19.40
2022-11-21T09:18:47.085Z,19.40
2022-11-21T09:21:22.012Z,19.40
2022-11-21T09:23:56.487Z,19.30
2022-11-21T09:26:31.594Z,19.30
2022-11-21T09:29:27.416Z,19.30
2022-11-21T09:32:03.006Z,19.20
2022-11-21T09:34:39.312Z,19.20
2022-11-21T09:37:19.237Z,19.20
2022-11-21T09:39:53.523Z,19.10
2022-11-21T09:42:53.011Z,19.10
2022-11-21T09:45:36.106Z,19.00
2022-11-21T09:48:16.750Z,18.90
2022-11-21T09:50:59.277Z,18.90
2022-11-21T09:53:36.566Z,18.90
2022-11-21T09:56:21.478Z,18.80
2022-11-21T09:59:02.745Z,18.80
2022-11-21T10:01:37.543Z,18.70
2022-11-21T10:04:15.328Z,18.70
2022-11-21T10:06:57.687Z,18.60
2022-11-21T10:09:48.028Z,18.60
2022-11-21T10:12:44.185Z,18.50
2022-11-21T10:15:35.851Z,18.50
2022-11-21T10:18:38.354Z,18.40
2022-11-21T10:21:23.172Z,18.40
2022-11-21T10:24:16.603Z,18.30
2022-11-21T10:26:57.470Z,18.30
2022-11-21T10:29:38.012Z,18.20
2022-11-21T10:32:21.749Z,18.20
2022-11-21T10:35:00.054Z,18.10
2022-11-21T10:37:40.151Z,18.10
2022-11-21T10:40:32.955Z,18.00
2022-11-21T10:43:25.581Z,18.00
2022-11-21T10:46:00.851Z,17.90
2022-11-21T10:48:35.251Z,17.90
2022-11-21T10:51:30.077Z,17.80
2022-11-21T10:54:33.528Z,17.80
2022-11-21T10:57:17.164Z,17.80
2022-11-21T11:00:19.822Z,17.70
2022-11-21T11:03:27.462Z,17.70
2022-11-21T11:06:02.329Z,17.60
2022-11-21T11:08:55.677Z,17.60
2022-11-21T11:11:30.039Z,17.60
2022-11-21T11:14:09.231Z,17.60
2022-11-21T11:16:53.055Z,17.60
2022-11-21T11:19:43.842Z,17.50
2022-11-21T11:22:32.776Z,17.50
2022-11-21T11:25:09.121Z,17.50
2022-11-21T11:27:43.388Z,17.50
2022-11-21T11:30:25.596Z,17.50
2022-11-21T11:33:01.837Z,17.40
2022-11-21T11:35:39.393Z,17.40
2022-11-21T11:38:17.525Z,17.30
2022-11-21T11:40:52.803Z,17.30
2022-11-21T11:43:57.049Z,17.20
2022-11-21T11:47:04.490Z,17.20
2022-11-21T11:49:56.947Z,17.20
2022-11-21T11:52:35.884Z,17.20
2022-11-21T11:55:19.389Z,17.20
2022-11-21T11:57:56.627Z,17.20
2022-11-21T12:00:45.139Z,17.10
2022-11-21T12:03:26.119Z,17.10
2022-11-21T12:06:15.209Z,17.10
2022-11-21T12:08:57.632Z,17.10
2022-11-21T12:12:03.453Z,17.10
2022-11-21T12:15:04.920Z,17.00
2022-11-21T12:17:47.059Z,17.10
2022-11-21T12:20:27.803Z,17.00
2022-11-21T12:23:04.554Z,17.00
2022-11-21T12:25:47.181Z,16.90
2022-11-21T12:28:32.195Z,16.90
2022-11-21T12:31:13.774Z,16.90
2022-11-21T12:34:09.691Z,16.90
2022-11-21T12:36:58.432Z,16.90
2022-11-21T12:40:12.632Z,16.90
2022-11-21T12:42:57.783Z,16.90
2022-11-21T12:45:35.907Z,16.90
2022-11-21T12:48:38.860Z,16.90
2022-11-21T12:51:51.775Z,16.90
2022-11-21T12:54:52.690Z,16.90
2022-11-21T12:57:31.852Z,16.90
2022-11-21T13:00:13.488Z,16.90
2022-11-21T13:03:16.957Z,16.90
2022-11-21T13:05:57.404Z,16.90
2022-11-21T13:08:34.553Z,16.90
2022-11-21T13:11:33.120Z,16.90
2022-11-21T13:14:19.689Z,16.90
2022-11-21T13:17:04.200Z,16.90
2022-11-21T13:19:48.598Z,16.90
2022-11-21T13:23:00.862Z,16.90
2022-11-21T13:25:48.106Z,16.80
2022-11-21T13:28:43.729Z,16.90
2022-11-21T13:31:35.336Z,16.70
2022-11-21T13:34:31.635Z,16.70
2022-11-21T13:37:07.426Z,16.70
2022-11-21T13:39:45.566Z,16.70
2022-11-21T13:42:36.632Z,16.70
2022-11-21T13:45:49.770Z,16.70
2022-11-21T13:48:40.578Z,16.70
2022-11-21T13:51:39.961Z,16.70
2022-11-21T13:54:47.198Z,16.60
2022-11-21T13:57:36.265Z,16.60
2022-11-21T14:00:33.361Z,16.70
2022-11-21T14:03:47.319Z,16.60
2022-11-21T14:06:39.165Z,16.60
2022-11-21T14:09:29.447Z,16.60
2022-11-21T14:12:11.209Z,16.50
2022-11-21T14:14:50.379Z,16.50
2022-11-21T14:17:39.703Z,16.50
2022-11-21T14:20:34.499Z,16.60
2022-11-21T14:23:11.147Z,16.50
2022-11-21T14:25:51.479Z,16.50
2022-11-21T14:28:40.339Z,16.50
2022-11-21T14:31:21.769Z,16.50
2022-11-21T14:34:02.348Z,16.50
2022-11-21T14:36:39.065Z,16.50
2022-11-21T14:39:36.598Z,16.50
2022-11-21T14:42:18.905Z,16.40
2022-11-21T14:45:11.330Z,16.40
2022-11-21T14:47:53.737Z,16.40
2022-11-21T14:50:32.078Z,16.50
2022-11-21T14:53:11.475Z,16.50
2022-11-21T14:55:47.067Z,16.50
2022-11-21T14:58:23.889Z,16.50
2022-11-21T15:01:12.714Z,16.50
2022-11-21T15:04:00.392Z,16.50
2022-11-21T15:06:35.775Z,16.50
2022-11-21T15:10:25.143Z,16.40
2022-11-21T15:12:12.635Z,16.50
2022-11-21T15:14:52.105Z,16.50
2022-11-21T15:17:29.158Z,16.50
2022-11-21T15:20:23.592Z,16.50
2022-11-21T15:23:01.084Z,16.50
2022-11-21T15:25:49.759Z,16.50
2022-11-21T15:28:24.099Z,16.50
2022-11-21T15:31:32.456Z,16.50
2022-11-21T15:37:13.657Z,16.40
2022-11-21T15:39:50.263Z,16.20
2022-11-21T15:42:41.722Z,16.10
2022-11-21T15:45:32.270Z,16.10
2022-11-21T15:48:08.699Z,16.10
2022-11-21T15:50:43.413Z,16.10
2022-11-21T15:53:23.575Z,16.10
2022-11-21T15:55:57.951Z,16.10
2022-11-21T15:58:33.972Z,16.10
2022-11-21T16:01:19.065Z,16.00
2022-11-21T16:03:56.372Z,15.90
2022-11-21T16:06:30.824Z,16.00
2022-11-21T16:09:06.436Z,16.10
2022-11-21T16:11:47.068Z,16.00
2022-11-21T16:14:23.802Z,16.00
2022-11-21T16:16:57.859Z,15.90
2022-11-21T16:19:32.566Z,15.80
2022-11-21T16:22:07.580Z,15.80
2022-11-21T16:24:42.213Z,15.80
2022-11-21T16:27:16.581Z,15.80
2022-11-21T16:29:53.851Z,15.80
2022-11-21T16:32:30.885Z,15.80
2022-11-21T16:35:05.888Z,15.80
2022-11-21T16:37:40.802Z,15.70
2022-11-21T16:40:16.477Z,15.80
2022-11-21T16:42:53.873Z,15.80
2022-11-21T16:45:31.666Z,15.80
2022-11-21T16:48:06.418Z,15.90
2022-11-21T16:50:40.996Z,15.90
2022-11-21T16:53:15.327Z,15.90
2022-11-21T16:55:50.632Z,15.90
2022-11-21T16:58:25.005Z,15.90
2022-11-21T17:01:01.180Z,15.90
2022-11-21T17:03:35.267Z,16.00
2022-11-21T17:06:22.290Z,16.00
2022-11-21T17:08:57.198Z,16.00
2022-11-21T17:11:33.099Z,15.90
2022-11-21T17:14:10.028Z,16.00
2022-11-21T17:16:47.611Z,16.00
2022-11-21T17:19:28.531Z,16.00
2022-11-21T17:22:03.127Z,16.00
2022-11-21T17:24:37.696Z,16.10
2022-11-21T17:27:13.154Z,16.10
2022-11-21T17:29:47.996Z,16.00
2022-11-21T17:32:24.174Z,16.10
2022-11-21T17:34:59.003Z,16.00
2022-11-21T17:37:33.433Z,16.00
2022-11-21T17:40:08.400Z,16.10
2022-11-21T17:42:47.127Z,16.10
2022-11-21T17:45:26.884Z,16.10
2022-11-21T17:48:04.212Z,16.10
2022-11-21T17:50:38.384Z,16.10
2022-11-21T17:53:13.214Z,16.10
2022-11-21T17:55:48.451Z,16.10
2022-11-21T17:58:42.476Z,16.10
2022-11-21T18:01:20.849Z,16.10
2022-11-21T18:04:03.748Z,16.20
2022-11-21T18:06:43.255Z,16.20
2022-11-21T18:09:18.257Z,16.20
2022-11-21T18:11:53.509Z,16.20
2022-11-21T18:14:28.223Z,16.20
2022-11-21T18:17:02.292Z,16.20
2022-11-21T18:19:38.470Z,16.30
2022-11-21T18:22:12.735Z,16.20
2022-11-21T18:24:48.847Z,16.20
2022-11-21T18:27:24.145Z,16.30
2022-11-21T18:30:12.799Z,16.30
2022-11-21T18:32:47.626Z,16.20
2022-11-21T18:35:25.001Z,16.30
2022-11-21T18:38:00.377Z,16.30
2022-11-21T18:40:46.141Z,16.30
2022-11-21T18:43:20.628Z,16.30
2022-11-21T18:45:55.021Z,16.30
2022-11-21T18:49:00.211Z,16.30
2022-11-21T18:51:29.136Z,16.30
2022-11-21T18:54:07.148Z,16.30
2022-11-21T18:56:43.163Z,16.30
2022-11-21T18:59:18.034Z,16.30
2022-11-21T19:01:53.549Z,16.20
2022-11-21T19:04:27.946Z,16.20
2022-11-21T19:07:05.404Z,16.10
2022-11-21T19:09:39.887Z,16.10
2022-11-21T19:12:14.367Z,16.10
2022-11-21T19:14:49.725Z,16.10
2022-11-21T19:17:24.491Z,16.10
2022-11-21T19:19:58.915Z,16.00
2022-11-21T19:22:35.249Z,15.90
2022-11-21T19:25:10.952Z,16.00
2022-11-21T19:27:51.771Z,16.00
2022-11-21T19:30:25.834Z,16.00
2022-11-21T19:33:10.723Z,16.00
2022-11-21T19:35:45.005Z,16.00
2022-11-21T19:38:21.454Z,16.00
2022-11-21T19:41:11.684Z,16.00
2022-11-21T19:43:47.286Z,16.00
2022-11-21T19:46:22.852Z,16.00
2022-11-21T19:48:59.204Z,16.00
2022-11-21T19:51:36.109Z,16.00
2022-11-21T19:54:13.457Z,16.00
2022-11-21T19:56:47.792Z,16.00
2022-11-21T19:59:21.956Z,15.90
2022-11-21T20:01:56.155Z,15.90
2022-11-21T20:04:30.782Z,15.90
2022-11-21T20:07:07.824Z,16.00
2022-11-21T20:09:44.464Z,16.00
2022-11-21T20:12:19.272Z,15.90
2022-11-21T20:14:55.447Z,15.90
2022-11-21T20:17:29.676Z,15.90
2022-11-21T20:20:04.598Z,15.90
2022-11-21T20:22:38.832Z,15.90
2022-11-21T20:25:15.968Z,15.80
2022-11-21T20:27:50.364Z,15.90
2022-11-21T20:30:26.495Z,15.80
2022-11-21T20:33:00.654Z,15.80
2022-11-21T20:35:47.235Z,15.80
2022-11-21T20:38:24.305Z,15.80
2022-11-21T20:41:01.623Z,15.80
2022-11-21T20:44:10.602Z,15.70
2022-11-21T20:46:31.138Z,15.70
2022-11-21T20:49:05.905Z,15.70
2022-11-21T20:54:34.941Z,15.60
2022-11-21T20:57:15.224Z,15.60
2022-11-21T20:59:58.662Z,15.50
2022-11-21T21:02:33.702Z,15.50
2022-11-21T21:05:09.837Z,15.50
2022-11-21T21:07:44.960Z,15.50
2022-11-21T21:10:22.000Z,15.50
2022-11-21T21:12:59.263Z,15.50
2022-11-21T21:15:37.471Z,15.40
2022-11-21T21:18:12.124Z,15.40
2022-11-21T21:21:15.048Z,15.40
2022-11-21T21:23:42.566Z,15.40
2022-11-21T21:26:22.148Z,15.40
2022-11-21T21:29:01.328Z,15.40
2022-11-21T21:31:35.959Z,15.40
2022-11-21T21:34:10.344Z,15.30
2022-11-21T21:36:44.649Z,15.40
2022-11-21T21:39:30.521Z,15.30
2022-11-21T21:42:04.633Z,15.30
2022-11-21T21:44:40.971Z,15.30
2022-11-21T21:47:17.787Z,15.30
2022-11-21T21:49:52.605Z,15.30
2022-11-21T21:52:27.736Z,15.20
2022-11-21T21:55:03.806Z,15.20
2022-11-21T21:57:43.527Z,15.20
2022-11-21T22:00:23.367Z,15.30
2022-11-21T22:02:57.913Z,15.30
2022-11-21T22:05:33.604Z,15.30
2022-11-21T22:08:08.597Z,15.20
2022-11-21T22:10:53.324Z,15.30
2022-11-21T22:13:27.744Z,15.30
2022-11-21T22:16:05.162Z,15.30
2022-11-21T22:18:40.354Z,15.30
2022-11-21T22:21:25.376Z,15.30
2022-11-21T22:26:53.783Z,15.30
2022-11-21T22:29:28.317Z,15.30
2022-11-21T22:32:05.387Z,15.30
2022-11-21T22:34:40.037Z,15.30
2022-11-21T22:37:14.608Z,15.30
2022-11-21T22:39:49.316Z,15.30
2022-11-21T22:42:23.458Z,15.30
2022-11-21T22:44:58.619Z,15.30
2022-11-21T22:47:34.805Z,15.20
2022-11-21T22:50:30.640Z,15.20
2022-11-21T22:53:04.958Z,15.20
2022-11-21T22:55:39.473Z,15.20
2022-11-21T22:58:13.643Z,15.20
2022-11-21T23:00:48.680Z,15.10
2022-11-21T23:03:24.511Z,15.10
2022-11-21T23:06:05.837Z,15.10
2022-11-21T23:08:41.364Z,15.00
2022-11-21T23:11:17.452Z,15.00
2022-11-21T23:13:53.162Z,14.90
2022-11-21T23:16:27.777Z,14.90
2022-11-21T23:19:04.541Z,14.90
2022-11-21T23:21:39.715Z,14.80
2022-11-21T23:24:14.619Z,14.80
2022-11-21T23:26:49.116Z,14.80
2022-11-21T23:29:23.962Z,14.90
2022-11-21T23:31:58.228Z,14.90
2022-11-21T23:34:34.517Z,14.90
2022-11-21T23:37:08.398Z,14.90
2022-11-21T23:39:43.012Z,14.90
2022-11-21T23:42:17.792Z,14.90
2022-11-21T23:44:52.244Z,14.90
2022-11-21T23:47:27.745Z,14.90
2022-11-21T23:50:04.810Z,14.90
2022-11-21T23:52:39.178Z,14.90
2022-11-21T23:55:14.492Z,14.90
2022-11-21T23:57:52.062Z,14.90
